Barkley Regional Airport
KPAH : now visible

Airfield :











YOU CAN JOIN US ON...

 
LOGIN :

Register | Disclaimer

   EN    FR    IT 

 









Legend :    VFR   Marginal VFR   IFR   Intensive IFR   Very Intensive IFR
Visi :
Ceiling :
>= 8 km
>= 3000ft
5 to 8 km
1000 to 3000 ft
1500m to 5 km
500 to 1000 ft
800 to 1500m
200 to 500 ft
< 800m
< 200 ft
Symbols :   Thunderstorms  Fog  Heavy snow  Heavy precipitations  Wind > 20 kt






- Airport Elevation : 410 ft
- IATA code : PAH


KPAH - Barkley Regional

CURRENT METAR :
  • 240453Z AUTO 36003KT 10SM OVC055 15/12 A3001 RMK AO2 RAE29 SLP158 P0001 T01500122

EXPIRED METARs :
  • 240353Z 35005KT 10SM -RA OVC055 16/13 A3001 RMK AO2 SLP159 P0004 T01560128
  • 240253Z 22006KT 8SM -RA SCT060 SCT070 OVC100 15/13 A2999 RMK AO2 RAB0156 SLP154 P0005 60005 T01500128 53023
  • 240153Z 10SM OVC065 21/07 A2995 RMK AO2 SLP139 T02110072
  • 240053Z 21006KT 10SM OVC070 22/07 A2993 RMK AO2 SLP132 T02170067

TAF KPAH
Valid from the 24 at 03:00 until the 25 at 00:00 UTC


240256Z 2403/2424 23005KT 5SM -RA OVC070
FM240500 VRB02KT 2SM BR OVC050
FM241000 01007KT P6SM BKN050
FM241400 02008KT P6SM SCT250
KZME FIR / North America



MET'MAP, your aeronautical weather chart ! - Copyright ORBIFLY December 2007 - Disclaimer

ORBIFLY MET'MAP TEAM :

Programming & Development : Alexandra Zaïnal
Original concept : Baudouin d'Aumeries
Technical & hardware support : Manuel Goepfert
Assistance : Marc-Olivier Méhu




SOURCES & CREDITS :

   NOAA       Earth
Advisory